Time;durP1;ratioP1;P1;durP2;ratioP2;P2;SDS_P1;SDS_P2;PMS_P1;PMS_P2;Temp;Humidity;BMP_temperature;BMP_pressure;BME280_temperature;BME280_humidity;BME280_pressure;Samples;Min_cycle;Max_cycle;Signal;HPM_P1;HPM_P2
2023/03/20 00:01:51;;;;;;;37.40;22.70;;;;;;;6.62;63.39;98744.48;222089;1281;26457;-73
2023/03/20 00:06:56;;;;;;;41.30;22.90;;;;;;;6.60;63.32;98741.53;222207;1281;24309;-73
2023/03/20 00:12:06;;;;;;;38.60;22.90;;;;;;;6.59;63.43;98745.01;222206;1281;22568;-77
2023/03/20 00:17:19;;;;;;;39.50;24.40;;;;;;;6.59;63.73;98740.94;222310;1282;23350;-74
2023/03/20 00:22:23;;;;;;;37.00;21.50;;;;;;;6.59;63.71;98742.52;222410;1276;26552;-75
2023/03/20 00:27:26;;;;;;;34.80;21.50;;;;;;;6.58;63.63;98739.83;222448;1281;22920;-76
2023/03/20 00:32:29;;;;;;;36.00;21.70;;;;;;;6.59;64.18;98740.64;222117;1282;22652;-74
2023/03/20 00:37:47;;;;;;;35.60;21.90;;;;;;;6.61;64.09;98741.05;222214;1270;25339;-74
2023/03/20 00:43:12;;;;;;;42.40;24.90;;;;;;;6.63;64.22;98734.75;222144;1281;22583;-74
2023/03/20 00:48:15;;;;;;;36.40;22.20;;;;;;;6.65;64.40;98731.17;222229;1281;22529;-74
2023/03/20 00:53:38;;;;;;;35.80;22.50;;;;;;;6.71;64.31;98729.88;222196;1277;22530;-74
2023/03/20 00:58:41;;;;;;;34.30;20.60;;;;;;;6.76;64.40;98727.23;222075;1280;22561;-74
2023/03/20 01:03:44;;;;;;;34.00;20.10;;;;;;;6.82;64.50;98722.20;222229;1278;23027;-74
2023/03/20 01:08:52;;;;;;;32.20;19.40;;;;;;;6.87;64.31;98719.91;222173;1278;25421;-76
2023/03/20 01:13:57;;;;;;;30.90;17.90;;;;;;;6.92;64.46;98718.69;222212;1259;24089;-74
2023/03/20 01:19:01;;;;;;;31.40;18.60;;;;;;;6.97;64.10;98720.24;222201;1277;22586;-74
2023/03/20 01:24:04;;;;;;;30.30;18.50;;;;;;;7.01;64.22;98719.60;221993;1280;23592;-74
2023/03/20 01:29:29;;;;;;;34.40;18.30;;;;;;;7.05;64.20;98722.43;222092;1280;22571;-73
2023/03/20 01:34:39;;;;;;;28.70;17.90;;;;;;;7.11;64.41;98721.55;222118;1281;25999;-75
2023/03/20 01:39:42;;;;;;;33.60;19.80;;;;;;;7.14;64.19;98726.45;222137;1278;25386;-74
2023/03/20 01:44:46;;;;;;;29.60;17.80;;;;;;;7.16;64.26;98729.14;222286;1280;22957;-76
2023/03/20 01:50:17;;;;;;;31.30;18.50;;;;;;;7.16;64.17;98730.73;222182;1279;22530;-74
2023/03/20 01:55:21;;;;;;;31.30;18.50;;;;;;;7.18;64.04;98739.64;222025;1282;22526;-74
2023/03/20 02:00:35;;;;;;;31.10;18.60;;;;;;;7.20;64.07;98741.35;222149;1281;24230;-73
2023/03/20 02:05:43;;;;;;;30.50;18.10;;;;;;;7.21;63.78;98741.98;222276;1278;22632;-75
2023/03/20 02:10:48;;;;;;;29.20;19.00;;;;;;;7.20;64.14;98743.63;222134;1264;23271;-74
2023/03/20 02:16:03;;;;;;;29.70;19.40;;;;;;;7.18;64.15;98745.27;222100;1281;22591;-74
2023/03/20 02:21:52;;;;;;;30.00;18.20;;;;;;;7.16;64.19;98745.69;221859;1281;22582;-73
2023/03/20 02:26:55;;;;;;;;;;;;;;;7.17;64.33;98746.98;222034;1280;22647;-75
2023/03/20 02:32:36;;;;;;;26.50;16.90;;;;;;;7.17;64.11;98741.32;222165;1282;25753;-74
2023/03/20 02:38:08;;;;;;;25.90;16.10;;;;;;;7.19;64.39;98744.08;221845;1282;24262;-74
2023/03/20 02:43:52;;;;;;;31.20;17.40;;;;;;;7.21;64.48;98741.95;222190;1272;26365;-75
2023/03/20 02:49:09;;;;;;;26.00;16.40;;;;;;;7.23;64.41;98739.24;222067;1282;22561;-74
2023/03/20 02:54:30;;;;;;;25.50;15.80;;;;;;;7.24;64.22;98742.11;222059;1281;24625;-74
2023/03/20 03:00:02;;;;;;;23.90;15.30;;;;;;;7.23;64.50;98736.75;221985;1282;24978;-74
2023/03/20 03:05:18;;;;;;;23.90;15.20;;;;;;;7.22;64.64;98733.73;222548;1278;24175;-74
2023/03/20 03:10:26;;;;;;;25.20;16.20;;;;;;;7.21;64.68;98741.61;221938;1282;22542;-74
2023/03/20 03:15:39;;;;;;;25.40;16.00;;;;;;;7.19;64.61;98741.06;221847;1259;23233;-75
2023/03/20 03:21:04;;;;;;;23.10;15.30;;;;;;;7.16;64.47;98744.40;221868;1283;23001;-73
2023/03/20 03:26:24;;;;;;;23.60;15.60;;;;;;;7.12;64.68;98737.33;221926;1283;24234;-74
2023/03/20 03:31:43;;;;;;;23.70;16.20;;;;;;;7.07;64.55;98737.67;221907;1283;22689;-75
2023/03/20 03:37:06;;;;;;;23.20;15.60;;;;;;;7.00;64.66;98733.86;221828;1281;22549;-74
2023/03/20 03:42:32;;;;;;;23.50;15.00;;;;;;;6.93;64.91;98729.98;221810;1281;25989;-74
2023/03/20 03:47:45;;;;;;;22.60;15.10;;;;;;;6.87;65.29;98726.73;222336;1281;22947;-74
2023/03/20 03:52:50;;;;;;;;;;;;;;;6.83;65.28;98724.73;222052;1268;22564;-74
2023/03/20 03:58:02;;;;;;;22.70;14.60;;;;;;;6.79;65.50;98729.03;222440;1279;22555;-74
2023/03/20 04:03:07;;;;;;;23.60;14.60;;;;;;;6.76;65.41;98730.38;221982;1274;23232;-74
2023/03/20 04:08:19;;;;;;;22.50;15.50;;;;;;;6.74;65.58;98738.81;222098;1281;22532;-73
2023/03/20 04:13:25;;;;;;;23.30;16.20;;;;;;;6.72;65.44;98740.91;222006;1281;22557;-74
2023/03/20 04:18:28;;;;;;;23.60;15.80;;;;;;;6.71;65.49;98738.02;222053;1280;22533;-73
2023/03/20 04:23:32;;;;;;;22.10;14.30;;;;;;;6.69;65.48;98742.27;222083;1281;22545;-74
2023/03/20 04:28:38;;;;;;;23.60;15.90;;;;;;;6.65;65.72;98738.55;222143;1281;22561;-75
2023/03/20 04:33:49;;;;;;;25.50;17.60;;;;;;;6.60;65.97;98742.23;222105;1278;22692;-74
2023/03/20 04:39:07;;;;;;;22.20;16.40;;;;;;;6.56;65.95;98748.61;222133;1282;22570;-74
2023/03/20 04:44:10;;;;;;;22.40;15.40;;;;;;;6.57;66.23;98745.20;222154;1278;22537;-74
2023/03/20 04:49:19;;;;;;;21.90;16.10;;;;;;;6.58;66.35;98748.88;222172;1281;22536;-73
2023/03/20 04:54:24;;;;;;;24.00;16.10;;;;;;;6.58;66.29;98745.89;222108;1281;22569;-75
2023/03/20 04:59:28;;;;;;;23.60;15.80;;;;;;;6.60;66.30;98749.02;221965;1266;22585;-75
2023/03/20 05:04:30;;;;;;;21.60;15.90;;;;;;;6.64;66.16;98754.38;221953;1280;22547;-74
2023/03/20 05:09:33;;;;;;;22.50;14.90;;;;;;;6.70;66.74;98755.51;222184;1265;24389;-75
2023/03/20 05:14:39;;;;;;;25.40;16.30;;;;;;;6.77;66.45;98759.36;222188;1281;22645;-74
2023/03/20 05:20:04;;;;;;;20.80;14.90;;;;;;;6.85;66.07;98759.38;222159;1281;22555;-74
2023/03/20 05:25:18;;;;;;;20.20;14.60;;;;;;;6.88;66.27;98762.50;222120;1263;22570;-74
2023/03/20 05:30:35;;;;;;;20.90;14.60;;;;;;;6.91;65.98;98760.92;222194;1265;25556;-74
2023/03/20 05:35:59;;;;;;;22.00;14.90;;;;;;;6.94;66.45;98758.77;222171;1282;22643;-74
2023/03/20 05:41:34;;;;;;;24.80;16.60;;;;;;;7.03;66.34;98764.73;221697;1282;22520;-74
2023/03/20 05:47:00;;;;;;;26.20;16.80;;;;;;;7.08;66.39;98773.07;222100;1282;25507;-74
2023/03/20 05:52:41;;;;;;;31.00;17.80;;;;;;;7.15;66.56;98774.79;221942;1282;22582;-72
2023/03/20 05:58:04;;;;;;;27.90;17.70;;;;;;;7.18;66.48;98777.11;222608;1282;22566;-73
2023/03/20 06:03:32;;;;;;;26.10;17.30;;;;;;;7.23;66.50;98774.33;222088;1265;25334;-74
2023/03/20 06:08:40;;;;;;;29.60;18.50;;;;;;;7.32;66.62;98780.15;222066;1282;22543;-75
2023/03/20 06:13:49;;;;;;;24.70;16.70;;;;;;;7.48;66.78;98788.89;222131;1282;22617;-74
2023/03/20 06:18:54;;;;;;;24.70;16.60;;;;;;;7.65;66.95;98795.23;221883;1281;22560;-74
2023/03/20 06:23:58;;;;;;;27.60;17.50;;;;;;;7.79;66.76;98800.67;222034;1276;25236;-75
2023/03/20 06:29:02;;;;;;;25.70;16.10;;;;;;;7.90;66.33;98804.35;222022;1281;22530;-74
2023/03/20 06:34:12;;;;;;;24.80;17.30;;;;;;;7.98;66.84;98809.91;222174;1282;24335;-73
2023/03/20 06:39:18;;;;;;;22.20;17.00;;;;;;;8.00;66.69;98814.13;222206;1281;22535;-74
2023/03/20 06:44:21;;;;;;;23.50;16.90;;;;;;;8.03;66.86;98818.69;222082;1279;23048;-74
2023/03/20 06:49:50;;;;;;;24.00;16.70;;;;;;;8.11;67.44;98813.57;222247;1276;24827;-72
2023/03/20 06:54:56;;;;;;;23.70;17.30;;;;;;;8.25;67.70;98823.80;222540;1270;22830;-72
2023/03/20 07:00:04;;;;;;;25.90;19.10;;;;;;;8.41;67.70;98826.70;222730;1274;22570;-71
2023/03/20 07:05:11;;;;;;;20.90;16.50;;;;;;;8.57;68.20;98827.61;223022;1266;22651;-72
2023/03/20 07:10:13;;;;;;;22.30;16.80;;;;;;;8.73;67.94;98830.30;222404;1261;139259;-74
2023/03/20 07:15:25;;;;;;;23.50;15.90;;;;;;;8.92;68.59;98832.99;222599;1271;138598;-73
2023/03/20 07:20:30;;;;;;;20.20;15.40;;;;;;;9.06;68.52;98834.66;222340;1271;138608;-75
2023/03/20 07:25:54;;;;;;;20.50;15.80;;;;;;;9.23;68.45;98835.78;222378;1273;23268;-72
2023/03/20 07:30:59;;;;;;;22.20;16.30;;;;;;;9.36;68.54;98836.69;222381;1269;138732;-71
2023/03/20 07:36:26;;;;;;;;;;;;;;;;;;;;;
2023/03/20 07:41:50;;;;;;;22.80;17.40;;;;;;;9.77;69.29;98841.10;222410;1273;138794;-76
2023/03/20 07:47:07;;;;;;;23.30;17.60;;;;;;;9.88;69.19;98843.55;222436;1276;139275;-72
2023/03/20 07:52:13;;;;;;;24.90;18.20;;;;;;;9.93;69.35;98849.84;222420;1272;139760;-73
2023/03/20 07:57:15;;;;;;;24.70;17.60;;;;;;;9.97;69.52;98847.34;222276;1273;140351;-70
2023/03/20 08:02:28;;;;;;;24.10;18.00;;;;;;;10.04;69.46;98850.11;222349;1273;138719;-73
2023/03/20 08:07:42;;;;;;;22.00;17.80;;;;;;;10.22;69.88;98843.54;222368;1273;22521;-72
2023/03/20 08:12:47;;;;;;;22.10;17.80;;;;;;;10.40;69.86;98843.25;222242;1275;138608;-74
2023/03/20 08:17:50;;;;;;;25.20;17.70;;;;;;;10.54;70.10;98841.38;222100;1276;139683;-71
2023/03/20 08:22:52;;;;;;;22.40;16.50;;;;;;;10.66;70.25;98834.15;222245;1278;139095;-71
2023/03/20 08:27:54;;;;;;;23.60;16.90;;;;;;;10.85;70.12;98835.94;222018;1269;138795;-71
2023/03/20 08:32:57;;;;;;;26.20;17.70;;;;;;;11.04;69.84;98838.93;222476;1276;140646;-71
2023/03/20 08:38:00;;;;;;;21.60;16.90;;;;;;;11.16;69.63;98845.53;222285;1275;139365;-70
2023/03/20 08:43:11;;;;;;;23.70;17.20;;;;;;;11.22;69.68;98846.17;222315;1268;22670;-71
2023/03/20 08:48:16;;;;;;;22.20;17.30;;;;;;;11.29;69.88;98847.43;222305;1273;138620;-72
2023/03/20 08:53:22;;;;;;;21.20;16.20;;;;;;;11.35;70.06;98846.88;222401;1262;139313;-70
2023/03/20 08:58:28;;;;;;;19.10;15.80;;;;;;;11.39;69.99;98850.06;222506;1267;139300;-71
2023/03/20 09:03:30;;;;;;;21.90;16.30;;;;;;;11.48;70.10;98851.21;222413;1274;138882;-70
2023/03/20 09:08:37;;;;;;;23.50;16.90;;;;;;;11.68;70.08;98854.27;222337;1280;139327;-70
2023/03/20 09:13:39;;;;;;;20.40;16.30;;;;;;;11.82;69.79;98854.05;222491;1270;23802;-71
2023/03/20 09:18:43;;;;;;;20.30;15.50;;;;;;;11.87;69.64;98852.99;222220;1256;139022;-71
2023/03/20 09:23:46;;;;;;;21.10;17.00;;;;;;;12.07;69.75;98853.11;222466;1276;139338;-71
2023/03/20 09:28:56;;;;;;;21.00;17.10;;;;;;;12.31;69.47;98851.27;222279;1264;139397;-71
2023/03/20 09:34:07;;;;;;;20.90;16.90;;;;;;;12.47;69.03;98853.17;222313;1274;138915;-72
2023/03/20 09:39:17;;;;;;;19.60;16.30;;;;;;;12.65;68.81;98858.73;222069;1274;138910;-71
2023/03/20 09:44:50;;;;;;;20.50;16.10;;;;;;;12.81;68.12;98849.97;222214;1277;139131;-75
2023/03/20 09:50:08;;;;;;;22.10;16.90;;;;;;;13.08;67.81;98847.08;222237;1275;138896;-76
2023/03/20 09:55:40;;;;;;;19.40;16.60;;;;;;;13.36;67.59;98847.27;222440;1276;23113;-72
2023/03/20 10:00:47;;;;;;;19.00;16.00;;;;;;;13.75;67.35;98844.48;222012;1279;138563;-74
2023/03/20 10:06:28;;;;;;;19.60;16.60;;;;;;;14.16;66.69;98844.92;222266;1273;138058;-71
2023/03/20 10:12:03;;;;;;;19.90;16.20;;;;;;;14.30;65.62;98835.23;222042;1273;137879;-71
2023/03/20 10:17:38;;;;;;;23.50;16.90;;;;;;;14.21;65.09;98834.90;222285;1271;138083;-72
2023/03/20 10:22:52;;;;;;;17.90;15.80;;;;;;;14.08;64.83;98834.48;221950;1273;184082;-74
2023/03/20 10:28:10;;;;;;;20.10;15.90;;;;;;;13.98;65.26;98838.60;222126;1273;138109;-72
2023/03/20 10:33:30;;;;;;;20.70;16.20;;;;;;;13.91;65.16;98837.89;222268;1273;138234;-71
2023/03/20 10:39:22;;;;;;;;;;;;;;;;;;;;;
2023/03/20 10:44:37;;;;;;;20.00;16.60;;;;;;;13.96;65.21;98836.23;222313;1279;138526;-72
2023/03/20 10:49:59;;;;;;;18.70;14.70;;;;;;;13.91;65.35;98832.30;222810;1278;26586;-75
2023/03/20 10:55:19;;;;;;;18.70;15.20;;;;;;;13.79;65.14;98828.40;222889;1274;22713;-71
2023/03/20 11:00:27;;;;;;;17.70;15.00;;;;;;;13.82;65.48;98828.02;222268;1274;138361;-72
2023/03/20 11:05:35;;;;;;;17.80;14.80;;;;;;;14.08;65.72;98824.48;222268;1273;138572;-72
2023/03/20 11:10:42;;;;;;;23.40;16.20;;;;;;;14.37;65.61;98816.41;222360;1274;138142;-71
2023/03/20 11:15:47;;;;;;;15.70;13.50;;;;;;;14.72;65.32;98808.89;222144;1273;138180;-72
2023/03/20 11:20:56;;;;;;;16.30;13.90;;;;;;;15.08;65.12;98809.41;222298;1274;138106;-72
2023/03/20 11:26:05;;;;;;;16.70;13.60;;;;;;;15.52;64.80;98804.61;222062;1270;22715;-72
2023/03/20 11:31:18;;;;;;;14.60;12.30;;;;;;;15.85;63.94;98796.84;222412;1265;22513;-74
2023/03/20 11:36:39;;;;;;;13.00;11.60;;;;;;;15.99;63.60;98795.59;222332;1265;137971;-72
2023/03/20 11:41:48;;;;;;;12.60;11.20;;;;;;;15.97;62.96;98791.63;221987;1267;138509;-72
2023/03/20 11:47:18;;;;;;;13.30;10.70;;;;;;;16.04;63.22;98789.66;222122;1273;138630;-72
2023/03/20 11:52:27;;;;;;;12.30;10.40;;;;;;;16.06;62.45;98787.48;221986;1273;138405;-73
2023/03/20 11:57:42;;;;;;;12.20;9.90;;;;;;;16.06;62.57;98781.63;222129;1275;138085;-73
2023/03/20 12:02:54;;;;;;;12.00;9.20;;;;;;;16.23;62.35;98773.40;222088;1265;138045;-72
2023/03/20 12:08:15;;;;;;;10.10;8.30;;;;;;;16.31;61.85;98765.38;222189;1273;22585;-73
2023/03/20 12:13:26;;;;;;;8.20;7.40;;;;;;;16.26;61.77;98766.66;222544;1260;24248;-72
2023/03/20 12:18:38;;;;;;;14.60;13.10;;;;;;;16.09;61.37;98761.25;222302;1274;138189;-74
2023/03/20 12:23:50;;;;;;;15.80;14.10;;;;;;;15.87;61.52;98761.60;222412;1264;137958;-74
2023/03/20 12:29:04;;;;;;;16.70;14.70;;;;;;;15.66;61.87;98763.23;222383;1276;138157;-74
2023/03/20 12:34:26;;;;;;;15.60;14.00;;;;;;;15.51;62.13;98759.17;222226;1278;138327;-74
2023/03/20 12:39:40;;;;;;;15.40;13.80;;;;;;;15.32;62.47;98760.08;222368;1267;139094;-74
2023/03/20 12:45:01;;;;;;;15.90;14.20;;;;;;;15.05;62.73;98759.83;222177;1270;138817;-73
2023/03/20 12:50:27;;;;;;;15.30;13.50;;;;;;;14.74;63.06;98762.84;222224;1273;23376;-72
2023/03/20 12:56:10;;;;;;;15.20;13.60;;;;;;;14.44;63.77;98759.74;222590;1276;22650;-74
2023/03/20 13:01:30;;;;;;;15.40;12.80;;;;;;;14.32;64.34;98757.41;222428;1270;138827;-71
2023/03/20 13:06:46;;;;;;;15.90;13.80;;;;;;;14.28;64.52;98753.78;222600;1263;139077;-73
2023/03/20 13:12:25;;;;;;;16.20;14.00;;;;;;;14.37;64.69;98754.32;222408;1265;138720;-73
2023/03/20 13:17:59;;;;;;;16.50;14.70;;;;;;;14.44;65.01;98755.36;222222;1273;139034;-72
2023/03/20 13:23:33;;;;;;;15.70;14.00;;;;;;;14.42;64.85;98750.06;222336;1272;138756;-72
2023/03/20 13:29:28;;;;;;;15.30;12.40;;;;;;;14.43;64.96;98742.48;222362;1273;139398;-71
2023/03/20 13:35:20;;;;;;;16.70;14.00;;;;;;;14.35;64.56;98739.54;222458;1265;138929;-74
2023/03/20 13:40:32;;;;;;;16.40;13.60;;;;;;;14.34;65.10;98735.20;222436;1272;138918;-73
2023/03/20 13:45:47;;;;;;;16.90;15.00;;;;;;;14.30;65.02;98737.10;222432;1264;139342;-71
2023/03/20 13:51:25;;;;;;;19.30;14.90;;;;;;;14.20;65.20;98730.50;222722;1257;139213;-72
2023/03/20 13:57:18;;;;;;;18.50;14.60;;;;;;;14.17;65.43;98730.30;222701;1265;138850;-74
2023/03/20 14:02:54;;;;;;;17.40;15.50;;;;;;;14.15;65.74;98730.15;222183;1273;139723;-72
2023/03/20 14:08:29;;;;;;;20.20;16.90;;;;;;;14.08;66.17;98736.02;222356;1272;24207;-72
2023/03/20 14:13:33;;;;;;;26.60;19.30;;;;;;;13.96;66.72;98736.12;222161;1275;24195;-73
2023/03/20 14:18:37;;;;;;;25.20;20.10;;;;;;;13.88;67.00;98738.15;222230;1276;139185;-76
2023/03/20 14:23:48;;;;;;;25.60;18.90;;;;;;;13.77;67.50;98736.95;222262;1273;139504;-75
2023/03/20 14:29:18;;;;;;;22.00;18.20;;;;;;;13.66;67.77;98732.66;222561;1272;139258;-74
2023/03/20 14:35:04;;;;;;;20.90;17.60;;;;;;;13.64;68.04;98731.01;222409;1271;138849;-75
2023/03/20 14:40:30;;;;;;;30.70;22.70;;;;;;;13.62;68.32;98730.56;222413;1265;139228;-74
2023/03/20 14:45:57;;;;;;;24.40;19.60;;;;;;;13.64;68.46;98728.34;222271;1270;138774;-73
2023/03/20 14:51:36;;;;;;;27.60;22.00;;;;;;;13.70;68.71;98728.56;222330;1272;138876;-73
2023/03/20 14:56:39;;;;;;;27.30;21.60;;;;;;;13.72;68.58;98715.81;222277;1274;138894;-74
2023/03/20 15:01:49;;;;;;;27.10;21.40;;;;;;;13.77;68.78;98721.12;222569;1270;23698;-74
2023/03/20 15:07:06;;;;;;;23.00;19.60;;;;;;;13.79;68.61;98717.60;222183;1280;22614;-74
2023/03/20 15:12:13;;;;;;;22.20;19.80;;;;;;;13.76;68.69;98712.99;222332;1280;22606;-73
2023/03/20 15:17:33;;;;;;;22.30;19.00;;;;;;;13.81;68.94;98705.16;222061;1256;23537;-73
2023/03/20 15:22:58;;;;;;;25.60;19.30;;;;;;;13.82;68.61;98707.48;222277;1280;26682;-73
2023/03/20 15:28:05;;;;;;;22.50;19.20;;;;;;;13.87;68.68;98706.33;222320;1280;22527;-73
2023/03/20 15:33:19;;;;;;;20.30;17.60;;;;;;;13.88;68.60;98702.89;222236;1262;22872;-73
2023/03/20 15:38:33;;;;;;;22.60;18.10;;;;;;;13.88;68.45;98702.23;222225;1280;22545;-74
2023/03/20 15:43:39;;;;;;;24.80;19.40;;;;;;;13.91;68.83;98707.42;222209;1280;22541;-73
2023/03/20 15:48:49;;;;;;;25.70;19.80;;;;;;;13.98;68.85;98706.59;222224;1280;22583;-74
2023/03/20 15:53:51;;;;;;;22.90;18.70;;;;;;;14.02;68.82;98705.11;222199;1280;24269;-73
2023/03/20 15:58:56;;;;;;;24.10;19.50;;;;;;;14.07;68.83;98701.50;222311;1280;22561;-75
2023/03/20 16:03:58;;;;;;;18.60;15.60;;;;;;;14.15;68.74;98703.77;222357;1279;22531;-73
2023/03/20 16:09:05;;;;;;;17.50;14.30;;;;;;;14.18;68.26;98709.48;222208;1277;25263;-73
2023/03/20 16:14:23;;;;;;;18.10;14.80;;;;;;;14.07;67.95;98715.68;222232;1270;24229;-73
2023/03/20 16:19:30;;;;;;;19.40;15.40;;;;;;;13.84;67.74;98719.95;222252;1280;22571;-75
2023/03/20 16:24:38;;;;;;;20.50;15.20;;;;;;;13.56;68.10;98722.23;222069;1280;25368;-74
2023/03/20 16:29:48;;;;;;;20.50;16.20;;;;;;;13.27;68.32;98726.27;222277;1277;23363;-74
2023/03/20 16:34:56;;;;;;;19.80;15.90;;;;;;;13.05;68.65;98723.55;222185;1280;22587;-74
2023/03/20 16:40:33;;;;;;;21.80;16.80;;;;;;;12.86;69.15;98717.11;222220;1275;22526;-74
2023/03/20 16:45:55;;;;;;;19.60;15.40;;;;;;;12.63;69.46;98715.72;222188;1271;24559;-72
2023/03/20 16:51:12;;;;;;;25.20;20.10;;;;;;;12.44;69.50;98718.59;222205;1275;24887;-73
2023/03/20 16:56:28;;;;;;;23.00;17.20;;;;;;;12.27;69.79;98718.88;222224;1280;25715;-74
2023/03/20 17:01:31;;;;;;;20.10;16.50;;;;;;;12.14;69.97;98725.08;222328;1280;24193;-75
2023/03/20 17:06:44;;;;;;;19.20;15.20;;;;;;;12.03;70.17;98730.73;222454;1280;23424;-73
2023/03/20 17:12:02;;;;;;;17.90;14.60;;;;;;;11.92;70.32;98737.42;222349;1279;24960;-77
2023/03/20 17:17:11;;;;;;;17.20;13.90;;;;;;;11.81;70.24;98741.34;222226;1280;23100;-74
2023/03/20 17:22:22;;;;;;;18.10;14.10;;;;;;;11.75;70.74;98740.83;222568;1275;22541;-73
2023/03/20 17:27:26;;;;;;;20.30;14.50;;;;;;;11.72;70.58;98741.62;222384;1278;22541;-72
2023/03/20 17:32:31;;;;;;;16.20;11.80;;;;;;;11.66;70.84;98753.31;222169;1280;24230;-73
2023/03/20 17:37:37;;;;;;;32.50;26.40;;;;;;;11.59;71.02;98773.05;222042;1280;22527;-74
2023/03/20 17:42:39;;;;;;;24.60;19.60;;;;;;;11.53;71.72;98771.52;222415;1263;23793;-74
2023/03/20 17:47:44;;;;;;;17.80;14.60;;;;;;;11.47;71.86;98775.33;222293;1257;23258;-72
2023/03/20 17:52:49;;;;;;;15.70;12.50;;;;;;;11.40;71.85;98777.98;222167;1280;22664;-74
2023/03/20 17:57:54;;;;;;;18.10;15.20;;;;;;;11.31;72.11;98781.17;222208;1280;25339;-74
2023/03/20 18:02:56;;;;;;;20.20;15.20;;;;;;;11.23;72.20;98785.10;222223;1278;22962;-73
2023/03/20 18:08:29;;;;;;;21.50;17.10;;;;;;;11.15;72.42;98785.56;222242;1277;25306;-74
2023/03/20 18:13:34;;;;;;;22.30;17.80;;;;;;;11.06;72.92;98783.84;222244;1280;22578;-73
2023/03/20 18:18:36;;;;;;;22.50;17.50;;;;;;;10.98;73.45;98785.06;222257;1278;22649;-74
2023/03/20 18:23:42;;;;;;;20.60;16.30;;;;;;;10.91;74.08;98789.20;222325;1280;23231;-75
2023/03/20 18:28:51;;;;;;;20.60;17.10;;;;;;;10.85;74.18;98778.91;222053;1280;25323;-74
2023/03/20 18:33:56;;;;;;;21.90;17.40;;;;;;;10.83;74.28;98766.84;221961;1280;27328;-72
2023/03/20 18:39:04;;;;;;;20.20;16.40;;;;;;;10.80;74.31;98770.67;222148;1277;25432;-75
2023/03/20 18:44:06;;;;;;;16.70;14.30;;;;;;;10.76;73.89;98772.95;222232;1280;24296;-73
2023/03/20 18:49:21;;;;;;;17.90;13.30;;;;;;;10.74;73.99;98770.24;222231;1280;22615;-74
2023/03/20 18:54:26;;;;;;;18.20;14.60;;;;;;;10.73;74.10;98764.58;222113;1264;25341;-74
2023/03/20 18:59:29;;;;;;;20.40;15.80;;;;;;;10.69;74.29;98769.34;222296;1263;25373;-73
2023/03/20 19:04:34;;;;;;;22.60;17.70;;;;;;;10.61;74.58;98774.17;222194;1280;22658;-73
2023/03/20 19:09:36;;;;;;;23.10;19.80;;;;;;;10.54;74.62;98773.71;222152;1280;23315;-72
2023/03/20 19:14:59;;;;;;;26.90;20.80;;;;;;;10.49;74.63;98774.23;221899;1283;22980;-74
2023/03/20 19:20:01;;;;;;;31.50;22.40;;;;;;;10.45;75.13;98768.37;221791;1261;22544;-74
2023/03/20 19:25:04;;;;;;;34.00;26.10;;;;;;;10.42;75.31;98767.80;221781;1271;24351;-73
2023/03/20 19:30:36;;;;;;;40.80;28.10;;;;;;;10.40;75.40;98769.13;221894;1283;22577;-74
2023/03/20 19:35:56;;;;;;;32.50;23.70;;;;;;;10.37;75.66;98769.56;222011;1283;25616;-73
2023/03/20 19:41:05;;;;;;;35.30;24.80;;;;;;;10.33;76.36;98771.48;222300;1275;22537;-74
2023/03/20 19:46:15;;;;;;;41.90;28.70;;;;;;;10.26;76.29;98779.61;222343;1280;22695;-73
2023/03/20 19:51:39;;;;;;;42.10;31.70;;;;;;;10.22;76.44;98783.98;222313;1279;26378;-73
2023/03/20 19:56:42;;;;;;;39.80;29.40;;;;;;;10.18;76.93;98782.53;222217;1280;22533;-73
2023/03/20 20:01:45;;;;;;;34.20;25.40;;;;;;;10.11;76.90;98795.53;222172;1264;25417;-73
2023/03/20 20:06:49;;;;;;;30.00;24.40;;;;;;;10.00;77.08;98798.45;222354;1277;25230;-74
2023/03/20 20:12:03;;;;;;;28.40;22.90;;;;;;;9.89;77.07;98792.21;222165;1280;22622;-73
2023/03/20 20:17:06;;;;;;;25.20;21.30;;;;;;;9.79;77.54;98798.82;222136;1280;22703;-74
2023/03/20 20:22:28;;;;;;;26.50;20.50;;;;;;;9.75;78.09;98798.94;221701;1281;27341;-73
2023/03/20 20:27:31;;;;;;;20.60;18.10;;;;;;;9.73;78.31;98800.15;221682;1284;25076;-75
2023/03/20 20:32:35;;;;;;;23.80;17.80;;;;;;;9.70;78.75;98803.57;221567;1283;24187;-72
2023/03/20 20:37:40;;;;;;;20.70;17.00;;;;;;;9.70;78.46;98810.90;221862;1282;23452;-74
2023/03/20 20:43:05;;;;;;;21.30;18.50;;;;;;;9.69;78.85;98806.35;221711;1281;22553;-74
2023/03/20 20:48:12;;;;;;;20.90;18.50;;;;;;;9.67;79.37;98804.86;222399;1271;23180;-73
2023/03/20 20:53:14;;;;;;;19.70;16.50;;;;;;;9.65;79.50;98808.23;222104;1280;23215;-73
2023/03/20 20:58:17;;;;;;;20.90;18.00;;;;;;;9.61;79.60;98810.11;222197;1280;22559;-73
2023/03/20 21:03:19;;;;;;;19.50;16.60;;;;;;;9.59;79.82;98797.77;222404;1280;22648;-74
2023/03/20 21:08:24;;;;;;;18.30;15.40;;;;;;;9.56;80.32;98784.05;222346;1280;22552;-74
2023/03/20 21:13:27;;;;;;;18.10;14.60;;;;;;;9.52;80.48;98783.95;222248;1280;23550;-75
2023/03/20 21:18:29;;;;;;;19.60;14.90;;;;;;;9.47;80.35;98776.42;222338;1280;22580;-76
2023/03/20 21:23:32;;;;;;;18.80;15.70;;;;;;;9.43;80.49;98779.53;222183;1277;23258;-74
2023/03/20 21:28:35;;;;;;;17.80;14.80;;;;;;;9.37;80.42;98778.33;222339;1280;22549;-75
2023/03/20 21:33:37;;;;;;;20.00;16.90;;;;;;;9.32;80.74;98777.21;222229;1278;23904;-75
2023/03/20 21:38:39;;;;;;;17.50;14.70;;;;;;;9.25;80.45;98773.08;222149;1280;22538;-74
2023/03/20 21:44:02;;;;;;;19.80;14.40;;;;;;;9.20;80.73;98767.33;222218;1280;22549;-73
2023/03/20 21:49:14;;;;;;;17.90;15.30;;;;;;;9.16;80.92;98770.31;222261;1280;24810;-74
2023/03/20 21:54:40;;;;;;;17.90;15.90;;;;;;;9.11;81.07;98773.27;222043;1280;22576;-75
2023/03/20 22:00:25;;;;;;;17.30;15.00;;;;;;;9.10;81.21;98766.89;222071;1280;22540;-75
2023/03/20 22:05:48;;;;;;;18.80;15.20;;;;;;;9.09;81.14;98766.71;222325;1280;22553;-76
2023/03/20 22:11:12;;;;;;;18.30;15.80;;;;;;;9.06;81.17;98775.27;222314;1280;22527;-75
2023/03/20 22:16:34;;;;;;;19.90;16.20;;;;;;;9.01;81.46;98773.65;222114;1280;22616;-74
2023/03/20 22:21:57;;;;;;;20.80;17.70;;;;;;;8.97;81.45;98777.13;222268;1278;151488;-75
2023/03/20 22:27:20;;;;;;;21.60;16.80;;;;;;;8.94;81.65;98778.52;222232;1280;24197;-74
2023/03/20 22:32:45;;;;;;;24.30;19.00;;;;;;;8.95;82.04;98779.41;222350;1280;22572;-74
2023/03/20 22:38:19;;;;;;;22.50;19.00;;;;;;;8.97;82.23;98777.09;222297;1279;24971;-74
2023/03/20 22:43:48;;;;;;;21.50;18.80;;;;;;;8.99;82.50;98777.25;222320;1280;22541;-74
2023/03/20 22:49:18;;;;;;;20.60;16.40;;;;;;;9.00;82.28;98773.25;222228;1280;22553;-74
2023/03/20 22:54:25;;;;;;;19.80;16.70;;;;;;;8.98;82.16;98772.64;222189;1280;24229;-75
2023/03/20 22:59:27;;;;;;;24.00;18.00;;;;;;;8.94;82.26;98769.67;222219;1279;25363;-74
2023/03/20 23:04:32;;;;;;;23.30;17.40;;;;;;;8.93;82.45;98768.27;222208;1280;22702;-74
2023/03/20 23:09:35;;;;;;;22.70;18.60;;;;;;;8.93;82.56;98766.48;222289;1280;22541;-74
2023/03/20 23:14:41;;;;;;;23.90;18.90;;;;;;;8.96;82.76;98763.38;222273;1280;22561;-76
2023/03/20 23:19:59;;;;;;;22.60;18.50;;;;;;;8.95;82.74;98771.11;222301;1263;24251;-74
2023/03/20 23:25:14;;;;;;;23.20;19.00;;;;;;;8.95;82.69;98772.56;222454;1271;25294;-74
2023/03/20 23:30:32;;;;;;;24.60;20.20;;;;;;;8.91;82.45;98767.76;222569;1278;25240;-74
2023/03/20 23:35:56;;;;;;;24.70;21.10;;;;;;;8.83;82.53;98770.06;222087;1280;23610;-74
2023/03/20 23:41:17;;;;;;;26.10;21.70;;;;;;;8.82;82.92;98770.08;222099;1280;22530;-73
2023/03/20 23:46:28;;;;;;;27.00;21.70;;;;;;;8.81;82.87;98769.62;222236;1280;25405;-73
2023/03/20 23:51:45;;;;;;;27.50;23.00;;;;;;;8.79;83.23;98776.19;222306;1279;22553;-74
2023/03/20 23:56:59;;;;;;;27.90;23.30;;;;;;;8.78;83.38;98772.80;222479;1280;22546;-74
